sensor_id;sensor_type;location;lat;lon;timestamp;P1;durP1;ratioP1;P2;durP2;ratioP2
64208;SDS011;50527;52.414;13.226;2023-06-22T00:02:04;6.55;;;4.20;;
64208;SDS011;50527;52.414;13.226;2023-06-22T00:04:30;8.30;;;4.03;;
64208;SDS011;50527;52.414;13.226;2023-06-22T00:06:55;6.70;;;4.20;;
64208;SDS011;50527;52.414;13.226;2023-06-22T00:09:21;8.15;;;4.13;;
64208;SDS011;50527;52.414;13.226;2023-06-22T00:11:46;5.93;;;4.03;;
64208;SDS011;50527;52.414;13.226;2023-06-22T00:14:12;6.82;;;4.03;;
64208;SDS011;50527;52.414;13.226;2023-06-22T00:16:37;7.15;;;4.50;;
64208;SDS011;50527;52.414;13.226;2023-06-22T00:19:03;7.05;;;4.30;;
64208;SDS011;50527;52.414;13.226;2023-06-22T00:21:28;7.55;;;4.18;;
64208;SDS011;50527;52.414;13.226;2023-06-22T00:23:54;6.97;;;4.30;;
64208;SDS011;50527;52.414;13.226;2023-06-22T00:26:20;7.00;;;4.07;;
64208;SDS011;50527;52.414;13.226;2023-06-22T00:28:46;7.70;;;4.18;;
64208;SDS011;50527;52.414;13.226;2023-06-22T00:31:12;8.07;;;3.78;;
64208;SDS011;50527;52.414;13.226;2023-06-22T00:33:38;6.55;;;3.90;;
64208;SDS011;50527;52.414;13.226;2023-06-22T00:36:03;6.70;;;4.30;;
64208;SDS011;50527;52.414;13.226;2023-06-22T00:38:29;6.95;;;4.38;;
64208;SDS011;50527;52.414;13.226;2023-06-22T00:40:55;8.20;;;4.03;;
64208;SDS011;50527;52.414;13.226;2023-06-22T00:43:20;9.63;;;4.00;;
64208;SDS011;50527;52.414;13.226;2023-06-22T00:45:46;6.22;;;3.88;;
64208;SDS011;50527;52.414;13.226;2023-06-22T00:48:12;6.38;;;3.63;;
64208;SDS011;50527;52.414;13.226;2023-06-22T00:50:39;6.65;;;3.78;;
64208;SDS011;50527;52.414;13.226;2023-06-22T00:53:06;8.30;;;3.97;;
64208;SDS011;50527;52.414;13.226;2023-06-22T00:55:33;9.25;;;4.07;;
64208;SDS011;50527;52.414;13.226;2023-06-22T00:58:03;7.18;;;3.55;;
64208;SDS011;50527;52.414;13.226;2023-06-22T01:00:30;11.55;;;4.05;;
64208;SDS011;50527;52.414;13.226;2023-06-22T01:02:57;7.80;;;4.07;;
64208;SDS011;50527;52.414;13.226;2023-06-22T01:05:23;5.72;;;3.80;;
64208;SDS011;50527;52.414;13.226;2023-06-22T01:10:43;6.63;;;3.35;;
64208;SDS011;50527;52.414;13.226;2023-06-22T01:13:18;6.22;;;3.50;;
64208;SDS011;50527;52.414;13.226;2023-06-22T01:16:02;9.23;;;3.90;;
64208;SDS011;50527;52.414;13.226;2023-06-22T01:18:32;6.88;;;4.00;;
64208;SDS011;50527;52.414;13.226;2023-06-22T01:21:01;7.40;;;3.92;;
64208;SDS011;50527;52.414;13.226;2023-06-22T01:23:35;5.78;;;3.72;;
64208;SDS011;50527;52.414;13.226;2023-06-22T01:29:01;6.38;;;3.72;;
64208;SDS011;50527;52.414;13.226;2023-06-22T01:31:29;9.63;;;3.90;;
64208;SDS011;50527;52.414;13.226;2023-06-22T01:33:58;8.55;;;3.97;;
64208;SDS011;50527;52.414;13.226;2023-06-22T01:36:25;7.85;;;3.80;;
64208;SDS011;50527;52.414;13.226;2023-06-22T01:38:52;7.00;;;4.15;;
64208;SDS011;50527;52.414;13.226;2023-06-22T01:41:19;7.63;;;3.65;;
64208;SDS011;50527;52.414;13.226;2023-06-22T01:43:46;7.40;;;3.95;;
64208;SDS011;50527;52.414;13.226;2023-06-22T01:46:13;7.38;;;3.85;;
64208;SDS011;50527;52.414;13.226;2023-06-22T01:48:39;6.75;;;3.95;;
64208;SDS011;50527;52.414;13.226;2023-06-22T01:51:05;10.18;;;3.60;;
64208;SDS011;50527;52.414;13.226;2023-06-22T01:53:31;6.57;;;3.88;;
64208;SDS011;50527;52.414;13.226;2023-06-22T01:55:56;7.60;;;3.90;;
64208;SDS011;50527;52.414;13.226;2023-06-22T01:58:26;4.93;;;3.55;;
64208;SDS011;50527;52.414;13.226;2023-06-22T02:01:00;6.47;;;3.58;;
64208;SDS011;50527;52.414;13.226;2023-06-22T02:03:41;7.20;;;3.58;;
64208;SDS011;50527;52.414;13.226;2023-06-22T02:06:21;6.43;;;4.00;;
64208;SDS011;50527;52.414;13.226;2023-06-22T02:08:55;7.97;;;3.80;;
64208;SDS011;50527;52.414;13.226;2023-06-22T02:13:52;7.57;;;3.50;;
64208;SDS011;50527;52.414;13.226;2023-06-22T02:16:18;7.35;;;3.50;;
64208;SDS011;50527;52.414;13.226;2023-06-22T02:18:47;6.43;;;3.72;;
64208;SDS011;50527;52.414;13.226;2023-06-22T02:21:15;6.18;;;3.70;;
64208;SDS011;50527;52.414;13.226;2023-06-22T02:23:41;7.18;;;3.92;;
64208;SDS011;50527;52.414;13.226;2023-06-22T02:26:07;7.18;;;3.90;;
64208;SDS011;50527;52.414;13.226;2023-06-22T02:28:33;6.53;;;3.58;;
64208;SDS011;50527;52.414;13.226;2023-06-22T02:30:58;9.27;;;3.63;;
64208;SDS011;50527;52.414;13.226;2023-06-22T02:33:24;9.70;;;3.92;;
64208;SDS011;50527;52.414;13.226;2023-06-22T02:35:49;5.53;;;3.72;;
64208;SDS011;50527;52.414;13.226;2023-06-22T02:38:15;7.85;;;4.03;;
64208;SDS011;50527;52.414;13.226;2023-06-22T02:40:40;6.60;;;3.92;;
64208;SDS011;50527;52.414;13.226;2023-06-22T02:43:06;6.97;;;3.90;;
64208;SDS011;50527;52.414;13.226;2023-06-22T02:45:31;6.13;;;3.58;;
64208;SDS011;50527;52.414;13.226;2023-06-22T02:47:57;6.45;;;3.83;;
64208;SDS011;50527;52.414;13.226;2023-06-22T02:50:22;7.72;;;3.50;;
64208;SDS011;50527;52.414;13.226;2023-06-22T02:52:48;7.18;;;3.97;;
64208;SDS011;50527;52.414;13.226;2023-06-22T02:55:14;8.00;;;3.55;;
64208;SDS011;50527;52.414;13.226;2023-06-22T02:57:39;6.18;;;3.80;;
64208;SDS011;50527;52.414;13.226;2023-06-22T03:00:08;7.53;;;3.50;;
64208;SDS011;50527;52.414;13.226;2023-06-22T03:02:45;6.50;;;3.72;;
64208;SDS011;50527;52.414;13.226;2023-06-22T03:05:13;8.32;;;4.22;;
64208;SDS011;50527;52.414;13.226;2023-06-22T03:07:42;6.20;;;3.70;;
64208;SDS011;50527;52.414;13.226;2023-06-22T03:10:08;7.47;;;3.92;;
64208;SDS011;50527;52.414;13.226;2023-06-22T03:12:34;6.05;;;3.70;;
64208;SDS011;50527;52.414;13.226;2023-06-22T03:15:00;7.35;;;3.50;;
64208;SDS011;50527;52.414;13.226;2023-06-22T03:17:25;6.82;;;3.55;;
64208;SDS011;50527;52.414;13.226;2023-06-22T03:19:51;6.70;;;3.60;;
64208;SDS011;50527;52.414;13.226;2023-06-22T03:22:16;6.07;;;3.47;;
64208;SDS011;50527;52.414;13.226;2023-06-22T03:24:42;8.30;;;3.42;;
64208;SDS011;50527;52.414;13.226;2023-06-22T03:27:07;5.40;;;3.33;;
64208;SDS011;50527;52.414;13.226;2023-06-22T03:29:33;5.60;;;3.17;;
64208;SDS011;50527;52.414;13.226;2023-06-22T03:31:59;6.43;;;3.47;;
64208;SDS011;50527;52.414;13.226;2023-06-22T03:34:24;10.27;;;3.28;;
64208;SDS011;50527;52.414;13.226;2023-06-22T03:36:50;5.60;;;3.45;;
64208;SDS011;50527;52.414;13.226;2023-06-22T03:39:15;6.57;;;3.85;;
64208;SDS011;50527;52.414;13.226;2023-06-22T03:41:41;6.65;;;3.67;;
64208;SDS011;50527;52.414;13.226;2023-06-22T03:44:06;7.22;;;3.55;;
64208;SDS011;50527;52.414;13.226;2023-06-22T03:46:35;6.25;;;3.15;;
64208;SDS011;50527;52.414;13.226;2023-06-22T03:49:00;6.35;;;3.30;;
64208;SDS011;50527;52.414;13.226;2023-06-22T03:51:28;5.65;;;3.22;;
64208;SDS011;50527;52.414;13.226;2023-06-22T03:53:53;5.72;;;3.35;;
64208;SDS011;50527;52.414;13.226;2023-06-22T03:56:19;4.70;;;3.10;;
64208;SDS011;50527;52.414;13.226;2023-06-22T03:58:45;6.78;;;3.63;;
64208;SDS011;50527;52.414;13.226;2023-06-22T04:01:11;5.82;;;3.50;;
64208;SDS011;50527;52.414;13.226;2023-06-22T04:03:37;7.07;;;2.97;;
64208;SDS011;50527;52.414;13.226;2023-06-22T04:06:03;5.80;;;3.20;;
64208;SDS011;50527;52.414;13.226;2023-06-22T04:08:29;7.05;;;3.30;;
64208;SDS011;50527;52.414;13.226;2023-06-22T04:10:54;5.75;;;3.42;;
64208;SDS011;50527;52.414;13.226;2023-06-22T04:13:20;8.00;;;3.00;;
64208;SDS011;50527;52.414;13.226;2023-06-22T04:15:45;6.68;;;2.97;;
64208;SDS011;50527;52.414;13.226;2023-06-22T04:18:11;7.47;;;3.40;;
64208;SDS011;50527;52.414;13.226;2023-06-22T04:20:36;6.97;;;3.00;;
64208;SDS011;50527;52.414;13.226;2023-06-22T04:23:02;6.95;;;3.30;;
64208;SDS011;50527;52.414;13.226;2023-06-22T04:25:27;8.88;;;3.00;;
64208;SDS011;50527;52.414;13.226;2023-06-22T04:27:53;5.38;;;2.92;;
64208;SDS011;50527;52.414;13.226;2023-06-22T04:30:18;5.18;;;2.75;;
64208;SDS011;50527;52.414;13.226;2023-06-22T04:32:44;8.50;;;3.90;;
64208;SDS011;50527;52.414;13.226;2023-06-22T04:35:10;6.35;;;3.10;;
64208;SDS011;50527;52.414;13.226;2023-06-22T04:37:36;4.88;;;2.88;;
64208;SDS011;50527;52.414;13.226;2023-06-22T04:40:02;4.63;;;2.80;;
64208;SDS011;50527;52.414;13.226;2023-06-22T04:42:30;6.18;;;2.63;;
64208;SDS011;50527;52.414;13.226;2023-06-22T04:44:57;7.03;;;3.08;;
64208;SDS011;50527;52.414;13.226;2023-06-22T04:47:22;6.22;;;3.00;;
64208;SDS011;50527;52.414;13.226;2023-06-22T04:49:48;6.25;;;2.70;;
64208;SDS011;50527;52.414;13.226;2023-06-22T04:52:13;5.00;;;2.35;;
64208;SDS011;50527;52.414;13.226;2023-06-22T04:57:10;5.70;;;2.50;;
64208;SDS011;50527;52.414;13.226;2023-06-22T04:59:36;4.20;;;2.75;;
64208;SDS011;50527;52.414;13.226;2023-06-22T05:02:03;5.93;;;2.92;;
64208;SDS011;50527;52.414;13.226;2023-06-22T05:04:30;5.75;;;2.67;;
64208;SDS011;50527;52.414;13.226;2023-06-22T05:07:00;4.45;;;2.53;;
64208;SDS011;50527;52.414;13.226;2023-06-22T05:09:27;7.18;;;2.60;;
64208;SDS011;50527;52.414;13.226;2023-06-22T05:11:53;7.55;;;2.38;;
64208;SDS011;50527;52.414;13.226;2023-06-22T05:14:19;5.70;;;2.40;;
64208;SDS011;50527;52.414;13.226;2023-06-22T05:16:46;6.75;;;2.38;;
64208;SDS011;50527;52.414;13.226;2023-06-22T05:19:11;4.70;;;2.03;;
64208;SDS011;50527;52.414;13.226;2023-06-22T05:21:37;5.07;;;2.15;;
64208;SDS011;50527;52.414;13.226;2023-06-22T05:24:03;5.03;;;2.15;;
64208;SDS011;50527;52.414;13.226;2023-06-22T05:26:32;4.20;;;2.10;;
64208;SDS011;50527;52.414;13.226;2023-06-22T05:28:59;3.78;;;2.17;;
64208;SDS011;50527;52.414;13.226;2023-06-22T05:31:26;4.05;;;2.03;;
64208;SDS011;50527;52.414;13.226;2023-06-22T05:33:53;7.13;;;1.98;;
64208;SDS011;50527;52.414;13.226;2023-06-22T05:36:19;4.10;;;2.05;;
64208;SDS011;50527;52.414;13.226;2023-06-22T05:38:46;4.53;;;1.98;;
64208;SDS011;50527;52.414;13.226;2023-06-22T05:41:12;6.95;;;2.30;;
64208;SDS011;50527;52.414;13.226;2023-06-22T05:43:38;5.05;;;2.20;;
64208;SDS011;50527;52.414;13.226;2023-06-22T05:46:04;5.57;;;2.20;;
64208;SDS011;50527;52.414;13.226;2023-06-22T05:48:30;6.50;;;2.65;;
64208;SDS011;50527;52.414;13.226;2023-06-22T05:50:55;5.03;;;2.08;;
64208;SDS011;50527;52.414;13.226;2023-06-22T05:53:21;3.65;;;2.10;;
64208;SDS011;50527;52.414;13.226;2023-06-22T05:55:47;4.90;;;1.80;;
64208;SDS011;50527;52.414;13.226;2023-06-22T05:58:13;3.88;;;1.80;;
64208;SDS011;50527;52.414;13.226;2023-06-22T06:00:39;5.30;;;1.92;;
64208;SDS011;50527;52.414;13.226;2023-06-22T06:03:06;8.02;;;1.88;;
64208;SDS011;50527;52.414;13.226;2023-06-22T06:05:33;3.55;;;1.88;;
64208;SDS011;50527;52.414;13.226;2023-06-22T06:07:59;4.10;;;2.00;;
64208;SDS011;50527;52.414;13.226;2023-06-22T06:10:25;3.55;;;1.77;;
64208;SDS011;50527;52.414;13.226;2023-06-22T06:12:51;3.83;;;1.70;;
64208;SDS011;50527;52.414;13.226;2023-06-22T06:15:17;3.88;;;1.70;;
64208;SDS011;50527;52.414;13.226;2023-06-22T06:17:49;6.35;;;1.67;;
64208;SDS011;50527;52.414;13.226;2023-06-22T06:20:17;8.85;;;1.70;;
64208;SDS011;50527;52.414;13.226;2023-06-22T06:22:44;2.58;;;1.30;;
64208;SDS011;50527;52.414;13.226;2023-06-22T06:25:09;3.03;;;1.40;;
64208;SDS011;50527;52.414;13.226;2023-06-22T06:27:44;2.65;;;1.73;;
64208;SDS011;50527;52.414;13.226;2023-06-22T06:30:11;2.95;;;1.50;;
64208;SDS011;50527;52.414;13.226;2023-06-22T06:32:37;4.35;;;1.60;;
64208;SDS011;50527;52.414;13.226;2023-06-22T06:35:05;2.45;;;1.48;;
64208;SDS011;50527;52.414;13.226;2023-06-22T06:37:31;3.75;;;1.52;;
64208;SDS011;50527;52.414;13.226;2023-06-22T06:39:56;3.50;;;1.40;;
64208;SDS011;50527;52.414;13.226;2023-06-22T06:42:22;3.20;;;1.50;;
64208;SDS011;50527;52.414;13.226;2023-06-22T06:44:49;2.42;;;1.50;;
64208;SDS011;50527;52.414;13.226;2023-06-22T06:47:14;2.90;;;1.42;;
64208;SDS011;50527;52.414;13.226;2023-06-22T06:49:41;5.43;;;1.40;;
64208;SDS011;50527;52.414;13.226;2023-06-22T06:52:07;4.45;;;1.35;;
64208;SDS011;50527;52.414;13.226;2023-06-22T06:54:33;2.42;;;1.20;;
64208;SDS011;50527;52.414;13.226;2023-06-22T06:56:58;3.10;;;1.25;;
64208;SDS011;50527;52.414;13.226;2023-06-22T06:59:24;2.10;;;1.02;;
64208;SDS011;50527;52.414;13.226;2023-06-22T07:01:49;4.28;;;1.10;;
64208;SDS011;50527;52.414;13.226;2023-06-22T07:04:15;3.42;;;1.20;;
64208;SDS011;50527;52.414;13.226;2023-06-22T07:06:40;1.92;;;0.90;;
64208;SDS011;50527;52.414;13.226;2023-06-22T07:09:07;3.00;;;1.15;;
64208;SDS011;50527;52.414;13.226;2023-06-22T07:11:32;1.73;;;0.80;;
64208;SDS011;50527;52.414;13.226;2023-06-22T07:13:58;2.13;;;1.00;;
64208;SDS011;50527;52.414;13.226;2023-06-22T07:16:25;3.97;;;0.80;;
64208;SDS011;50527;52.414;13.226;2023-06-22T07:18:52;1.52;;;0.82;;
64208;SDS011;50527;52.414;13.226;2023-06-22T07:21:18;1.30;;;0.80;;
64208;SDS011;50527;52.414;13.226;2023-06-22T07:23:43;1.90;;;0.80;;
64208;SDS011;50527;52.414;13.226;2023-06-22T07:26:09;1.30;;;0.75;;
64208;SDS011;50527;52.414;13.226;2023-06-22T07:28:34;3.65;;;0.70;;
64208;SDS011;50527;52.414;13.226;2023-06-22T07:31:02;0.98;;;0.60;;
64208;SDS011;50527;52.414;13.226;2023-06-22T07:33:29;3.55;;;0.88;;
64208;SDS011;50527;52.414;13.226;2023-06-22T07:35:54;1.00;;;0.60;;
64208;SDS011;50527;52.414;13.226;2023-06-22T07:38:20;2.17;;;0.70;;
64208;SDS011;50527;52.414;13.226;2023-06-22T07:40:46;2.03;;;0.80;;
64208;SDS011;50527;52.414;13.226;2023-06-22T07:43:12;2.47;;;0.80;;
64208;SDS011;50527;52.414;13.226;2023-06-22T07:45:38;1.48;;;0.70;;
64208;SDS011;50527;52.414;13.226;2023-06-22T07:48:05;1.50;;;0.90;;
64208;SDS011;50527;52.414;13.226;2023-06-22T07:50:31;2.72;;;1.00;;
64208;SDS011;50527;52.414;13.226;2023-06-22T07:52:57;3.60;;;0.73;;
64208;SDS011;50527;52.414;13.226;2023-06-22T07:55:22;1.45;;;0.60;;
64208;SDS011;50527;52.414;13.226;2023-06-22T07:57:48;2.65;;;0.70;;
64208;SDS011;50527;52.414;13.226;2023-06-22T08:00:16;1.80;;;0.60;;
64208;SDS011;50527;52.414;13.226;2023-06-22T08:02:43;2.80;;;0.82;;
64208;SDS011;50527;52.414;13.226;2023-06-22T08:05:10;4.63;;;1.10;;
64208;SDS011;50527;52.414;13.226;2023-06-22T08:07:36;2.88;;;0.82;;
64208;SDS011;50527;52.414;13.226;2023-06-22T08:10:04;4.32;;;0.80;;
64208;SDS011;50527;52.414;13.226;2023-06-22T08:12:30;1.15;;;0.65;;
64208;SDS011;50527;52.414;13.226;2023-06-22T08:14:55;2.15;;;0.73;;
64208;SDS011;50527;52.414;13.226;2023-06-22T08:17:22;4.22;;;1.00;;
64208;SDS011;50527;52.414;13.226;2023-06-22T08:19:48;2.80;;;1.10;;
64208;SDS011;50527;52.414;13.226;2023-06-22T08:22:13;1.67;;;0.80;;
64208;SDS011;50527;52.414;13.226;2023-06-22T08:24:39;0.98;;;0.60;;
64208;SDS011;50527;52.414;13.226;2023-06-22T08:27:06;3.70;;;0.90;;
64208;SDS011;50527;52.414;13.226;2023-06-22T08:29:33;1.90;;;0.90;;
64208;SDS011;50527;52.414;13.226;2023-06-22T08:31:59;2.58;;;0.90;;
64208;SDS011;50527;52.414;13.226;2023-06-22T08:34:24;2.28;;;1.00;;
64208;SDS011;50527;52.414;13.226;2023-06-22T08:36:52;3.05;;;1.00;;
64208;SDS011;50527;52.414;13.226;2023-06-22T08:39:19;2.22;;;0.90;;
64208;SDS011;50527;52.414;13.226;2023-06-22T08:41:45;4.07;;;1.10;;
64208;SDS011;50527;52.414;13.226;2023-06-22T08:44:11;1.77;;;0.80;;
64208;SDS011;50527;52.414;13.226;2023-06-22T08:46:37;1.70;;;0.90;;
64208;SDS011;50527;52.414;13.226;2023-06-22T08:49:03;2.28;;;1.00;;
64208;SDS011;50527;52.414;13.226;2023-06-22T08:51:29;2.72;;;0.80;;
64208;SDS011;50527;52.414;13.226;2023-06-22T08:53:54;2.25;;;1.00;;
64208;SDS011;50527;52.414;13.226;2023-06-22T08:56:20;1.70;;;0.85;;
64208;SDS011;50527;52.414;13.226;2023-06-22T08:58:45;0.75;;;0.60;;
64208;SDS011;50527;52.414;13.226;2023-06-22T09:01:11;2.45;;;0.80;;
64208;SDS011;50527;52.414;13.226;2023-06-22T09:03:36;1.92;;;0.90;;
64208;SDS011;50527;52.414;13.226;2023-06-22T09:06:02;1.40;;;0.90;;
64208;SDS011;50527;52.414;13.226;2023-06-22T09:08:28;2.05;;;0.88;;
64208;SDS011;50527;52.414;13.226;2023-06-22T09:10:53;1.95;;;0.70;;
64208;SDS011;50527;52.414;13.226;2023-06-22T09:13:19;3.08;;;0.80;;
64208;SDS011;50527;52.414;13.226;2023-06-22T09:15:44;4.43;;;0.90;;
64208;SDS011;50527;52.414;13.226;2023-06-22T09:18:10;4.20;;;0.90;;
64208;SDS011;50527;52.414;13.226;2023-06-22T09:20:36;2.55;;;0.80;;
64208;SDS011;50527;52.414;13.226;2023-06-22T09:23:02;2.70;;;0.70;;
64208;SDS011;50527;52.414;13.226;2023-06-22T09:25:27;1.95;;;0.63;;
64208;SDS011;50527;52.414;13.226;2023-06-22T09:27:53;2.17;;;0.90;;
64208;SDS011;50527;52.414;13.226;2023-06-22T09:30:18;2.55;;;1.02;;
64208;SDS011;50527;52.414;13.226;2023-06-22T09:32:44;2.15;;;0.90;;
64208;SDS011;50527;52.414;13.226;2023-06-22T09:35:09;2.90;;;1.08;;
64208;SDS011;50527;52.414;13.226;2023-06-22T09:37:37;1.63;;;0.90;;
64208;SDS011;50527;52.414;13.226;2023-06-22T09:40:03;2.00;;;0.70;;
64208;SDS011;50527;52.414;13.226;2023-06-22T09:42:36;4.10;;;1.00;;
64208;SDS011;50527;52.414;13.226;2023-06-22T09:45:01;2.08;;;1.02;;
64208;SDS011;50527;52.414;13.226;2023-06-22T09:47:28;3.80;;;1.00;;
64208;SDS011;50527;52.414;13.226;2023-06-22T09:49:54;2.17;;;0.80;;
64208;SDS011;50527;52.414;13.226;2023-06-22T09:52:20;2.08;;;1.00;;
64208;SDS011;50527;52.414;13.226;2023-06-22T09:54:46;2.95;;;1.00;;
64208;SDS011;50527;52.414;13.226;2023-06-22T09:57:12;1.77;;;0.80;;
64208;SDS011;50527;52.414;13.226;2023-06-22T09:59:38;1.58;;;0.80;;
64208;SDS011;50527;52.414;13.226;2023-06-22T10:02:05;5.07;;;0.90;;
64208;SDS011;50527;52.414;13.226;2023-06-22T10:04:31;3.95;;;0.80;;
64208;SDS011;50527;52.414;13.226;2023-06-22T10:06:56;2.25;;;0.80;;
64208;SDS011;50527;52.414;13.226;2023-06-22T10:09:22;2.85;;;1.10;;
64208;SDS011;50527;52.414;13.226;2023-06-22T10:11:47;1.10;;;0.60;;
64208;SDS011;50527;52.414;13.226;2023-06-22T10:14:13;9.35;;;2.05;;
64208;SDS011;50527;52.414;13.226;2023-06-22T10:16:38;2.38;;;1.08;;
64208;SDS011;50527;52.414;13.226;2023-06-22T10:19:06;1.85;;;0.93;;
64208;SDS011;50527;52.414;13.226;2023-06-22T10:21:31;2.65;;;0.80;;
64208;SDS011;50527;52.414;13.226;2023-06-22T10:23:57;2.33;;;0.60;;
64208;SDS011;50527;52.414;13.226;2023-06-22T10:26:24;1.92;;;0.90;;
64208;SDS011;50527;52.414;13.226;2023-06-22T10:28:49;2.38;;;0.73;;
64208;SDS011;50527;52.414;13.226;2023-06-22T10:31:15;1.52;;;0.80;;
64208;SDS011;50527;52.414;13.226;2023-06-22T10:33:41;1.75;;;0.80;;
64208;SDS011;50527;52.414;13.226;2023-06-22T10:36:08;2.85;;;0.68;;
64208;SDS011;50527;52.414;13.226;2023-06-22T10:38:35;2.17;;;0.90;;
64208;SDS011;50527;52.414;13.226;2023-06-22T10:41:00;1.55;;;0.80;;
64208;SDS011;50527;52.414;13.226;2023-06-22T10:43:26;1.85;;;0.93;;
64208;SDS011;50527;52.414;13.226;2023-06-22T10:45:51;3.42;;;1.00;;
64208;SDS011;50527;52.414;13.226;2023-06-22T10:48:17;4.53;;;0.77;;
64208;SDS011;50527;52.414;13.226;2023-06-22T10:50:42;2.05;;;0.80;;
64208;SDS011;50527;52.414;13.226;2023-06-22T10:53:08;1.58;;;0.82;;
64208;SDS011;50527;52.414;13.226;2023-06-22T10:55:33;3.72;;;1.08;;
64208;SDS011;50527;52.414;13.226;2023-06-22T10:57:59;1.60;;;0.90;;
64208;SDS011;50527;52.414;13.226;2023-06-22T11:00:24;1.83;;;0.90;;
64208;SDS011;50527;52.414;13.226;2023-06-22T11:02:50;1.65;;;0.93;;
64208;SDS011;50527;52.414;13.226;2023-06-22T11:05:15;2.63;;;0.85;;
64208;SDS011;50527;52.414;13.226;2023-06-22T11:07:42;2.50;;;1.00;;
64208;SDS011;50527;52.414;13.226;2023-06-22T11:10:08;2.05;;;0.90;;
64208;SDS011;50527;52.414;13.226;2023-06-22T11:12:34;2.90;;;0.90;;
64208;SDS011;50527;52.414;13.226;2023-06-22T11:15:00;2.55;;;0.90;;
64208;SDS011;50527;52.414;13.226;2023-06-22T11:17:26;2.45;;;0.98;;
64208;SDS011;50527;52.414;13.226;2023-06-22T11:19:51;1.38;;;0.80;;
64208;SDS011;50527;52.414;13.226;2023-06-22T11:22:17;2.83;;;0.82;;
64208;SDS011;50527;52.414;13.226;2023-06-22T11:24:42;2.03;;;0.70;;
64208;SDS011;50527;52.414;13.226;2023-06-22T11:27:08;1.58;;;0.70;;
64208;SDS011;50527;52.414;13.226;2023-06-22T11:29:33;1.48;;;0.73;;
64208;SDS011;50527;52.414;13.226;2023-06-22T11:31:59;3.95;;;0.90;;
64208;SDS011;50527;52.414;13.226;2023-06-22T11:34:24;2.40;;;0.82;;
64208;SDS011;50527;52.414;13.226;2023-06-22T11:36:50;7.68;;;0.90;;
64208;SDS011;50527;52.414;13.226;2023-06-22T11:39:15;1.38;;;0.82;;
64208;SDS011;50527;52.414;13.226;2023-06-22T11:45:04;1.40;;;0.90;;
64208;SDS011;50527;52.414;13.226;2023-06-22T11:47:30;2.08;;;0.80;;
64208;SDS011;50527;52.414;13.226;2023-06-22T11:49:55;1.20;;;0.80;;
64208;SDS011;50527;52.414;13.226;2023-06-22T11:52:21;1.70;;;0.90;;
64208;SDS011;50527;52.414;13.226;2023-06-22T11:54:46;1.60;;;0.90;;
64208;SDS011;50527;52.414;13.226;2023-06-22T12:00:34;1.85;;;0.90;;
64208;SDS011;50527;52.414;13.226;2023-06-22T12:02:59;3.03;;;1.27;;
64208;SDS011;50527;52.414;13.226;2023-06-22T12:05:25;2.78;;;0.85;;
64208;SDS011;50527;52.414;13.226;2023-06-22T12:07:52;1.50;;;1.00;;
64208;SDS011;50527;52.414;13.226;2023-06-22T12:10:18;1.70;;;0.93;;
64208;SDS011;50527;52.414;13.226;2023-06-22T12:12:44;2.25;;;1.02;;
64208;SDS011;50527;52.414;13.226;2023-06-22T12:15:09;1.83;;;0.93;;
64208;SDS011;50527;52.414;13.226;2023-06-22T12:17:35;5.43;;;0.98;;
64208;SDS011;50527;52.414;13.226;2023-06-22T12:20:01;2.35;;;0.77;;
64208;SDS011;50527;52.414;13.226;2023-06-22T12:22:30;1.20;;;0.80;;
64208;SDS011;50527;52.414;13.226;2023-06-22T12:24:59;2.22;;;1.00;;
64208;SDS011;50527;52.414;13.226;2023-06-22T12:27:25;2.55;;;1.02;;
64208;SDS011;50527;52.414;13.226;2023-06-22T12:29:50;1.95;;;0.82;;
64208;SDS011;50527;52.414;13.226;2023-06-22T12:32:16;2.67;;;0.77;;
64208;SDS011;50527;52.414;13.226;2023-06-22T12:34:42;4.50;;;1.00;;
64208;SDS011;50527;52.414;13.226;2023-06-22T12:37:08;3.80;;;0.93;;
64208;SDS011;50527;52.414;13.226;2023-06-22T12:39:34;3.67;;;1.10;;
64208;SDS011;50527;52.414;13.226;2023-06-22T12:41:59;1.35;;;0.88;;
64208;SDS011;50527;52.414;13.226;2023-06-22T12:44:25;1.73;;;1.08;;
64208;SDS011;50527;52.414;13.226;2023-06-22T12:46:50;2.22;;;1.10;;
64208;SDS011;50527;52.414;13.226;2023-06-22T12:49:16;2.60;;;0.90;;
64208;SDS011;50527;52.414;13.226;2023-06-22T12:51:42;2.83;;;1.05;;
64208;SDS011;50527;52.414;13.226;2023-06-22T12:54:08;0.90;;;0.80;;
64208;SDS011;50527;52.414;13.226;2023-06-22T12:56:34;1.05;;;0.80;;
64208;SDS011;50527;52.414;13.226;2023-06-22T12:59:00;2.20;;;1.15;;
64208;SDS011;50527;52.414;13.226;2023-06-22T13:01:28;5.75;;;1.00;;
64208;SDS011;50527;52.414;13.226;2023-06-22T13:03:55;3.88;;;1.20;;
64208;SDS011;50527;52.414;13.226;2023-06-22T13:06:20;2.25;;;1.00;;
64208;SDS011;50527;52.414;13.226;2023-06-22T13:08:46;1.75;;;1.08;;
64208;SDS011;50527;52.414;13.226;2023-06-22T13:11:11;3.22;;;1.10;;
64208;SDS011;50527;52.414;13.226;2023-06-22T13:13:37;4.05;;;1.00;;
64208;SDS011;50527;52.414;13.226;2023-06-22T13:16:03;2.88;;;1.00;;
64208;SDS011;50527;52.414;13.226;2023-06-22T13:18:28;3.45;;;1.33;;
64208;SDS011;50527;52.414;13.226;2023-06-22T13:20:54;2.10;;;0.90;;
64208;SDS011;50527;52.414;13.226;2023-06-22T13:23:20;2.67;;;0.93;;
64208;SDS011;50527;52.414;13.226;2023-06-22T13:25:46;1.70;;;0.90;;
64208;SDS011;50527;52.414;13.226;2023-06-22T13:28:12;1.85;;;1.00;;
64208;SDS011;50527;52.414;13.226;2023-06-22T13:30:38;2.10;;;1.20;;
64208;SDS011;50527;52.414;13.226;2023-06-22T13:33:05;3.13;;;1.10;;
64208;SDS011;50527;52.414;13.226;2023-06-22T13:35:30;1.27;;;1.00;;
64208;SDS011;50527;52.414;13.226;2023-06-22T13:37:56;1.88;;;1.00;;
64208;SDS011;50527;52.414;13.226;2023-06-22T13:40:21;3.65;;;1.25;;
64208;SDS011;50527;52.414;13.226;2023-06-22T13:42:47;2.78;;;1.38;;
64208;SDS011;50527;52.414;13.226;2023-06-22T13:45:12;2.25;;;1.20;;
64208;SDS011;50527;52.414;13.226;2023-06-22T13:47:39;2.92;;;1.20;;
64208;SDS011;50527;52.414;13.226;2023-06-22T13:50:05;5.47;;;1.00;;
64208;SDS011;50527;52.414;13.226;2023-06-22T13:52:31;3.28;;;1.17;;
64208;SDS011;50527;52.414;13.226;2023-06-22T13:54:56;3.05;;;1.02;;
64208;SDS011;50527;52.414;13.226;2023-06-22T13:57:22;1.77;;;1.02;;
64208;SDS011;50527;52.414;13.226;2023-06-22T13:59:47;2.97;;;1.23;;
64208;SDS011;50527;52.414;13.226;2023-06-22T14:02:12;2.30;;;1.20;;
64208;SDS011;50527;52.414;13.226;2023-06-22T14:04:38;5.13;;;1.13;;
64208;SDS011;50527;52.414;13.226;2023-06-22T14:07:04;4.28;;;1.02;;
64208;SDS011;50527;52.414;13.226;2023-06-22T14:09:29;2.67;;;1.20;;
64208;SDS011;50527;52.414;13.226;2023-06-22T14:11:55;1.85;;;1.05;;
64208;SDS011;50527;52.414;13.226;2023-06-22T14:14:21;2.05;;;1.10;;
64208;SDS011;50527;52.414;13.226;2023-06-22T14:16:46;4.50;;;1.05;;
64208;SDS011;50527;52.414;13.226;2023-06-22T14:19:14;1.73;;;0.95;;
64208;SDS011;50527;52.414;13.226;2023-06-22T14:21:41;1.98;;;1.20;;
64208;SDS011;50527;52.414;13.226;2023-06-22T14:24:07;2.35;;;1.20;;
64208;SDS011;50527;52.414;13.226;2023-06-22T14:26:32;0.98;;;0.80;;
64208;SDS011;50527;52.414;13.226;2023-06-22T14:28:58;1.70;;;1.10;;
64208;SDS011;50527;52.414;13.226;2023-06-22T14:31:23;2.42;;;1.08;;
64208;SDS011;50527;52.414;13.226;2023-06-22T14:33:49;1.92;;;1.00;;
64208;SDS011;50527;52.414;13.226;2023-06-22T14:36:15;1.48;;;1.00;;
64208;SDS011;50527;52.414;13.226;2023-06-22T14:38:42;3.10;;;1.13;;
64208;SDS011;50527;52.414;13.226;2023-06-22T14:41:07;4.13;;;1.08;;
64208;SDS011;50527;52.414;13.226;2023-06-22T14:43:33;3.33;;;1.10;;
64208;SDS011;50527;52.414;13.226;2023-06-22T14:45:58;2.38;;;1.08;;